Thomas D. Witte — WDD8916 — position and weather

sailwx.info

Track history (hours):
 
Tides and Currents Weather Stations Pressure Air Temp Water Temp Dewpoint Dewpoint Depression Visibility Wind Speed Wind Dir Waves Ship Positions

Thomas D. Witte

Owner: Donjon Marine Co., Inc., Hillside, NJ. More information available from US FCC via Universal Licensing System and Coast Guard Vessel Documentation Center.

Last reported at 2017-Dec-18 22:30 UTC. Time now 2017-Dec-18 22:40 UTC.
Position N 40°41' W 074°05'.

Length 19 m.

Type: Other ship. MMSI: 367304530.

Date/timePositionNaut miles runAvg speedWind from/ knotsBaromVisibWave heightAir tempDewpointWater temp
2017-Dec-18 22:30N 40°41' W 074°05'0 0.0
2017-Dec-18 22:00N 40°41' W 074°05'0 0.0
2017-Dec-18 21:30N 40°41' W 074°05'0 0.0
2017-Dec-18 21:00N 40°41' W 074°05'0 0.1
2017-Dec-18 20:30N 40°41' W 074°05'0 0.0
2017-Dec-18 20:00N 40°41' W 074°05'0 0.0
2017-Dec-18 19:30N 40°41' W 074°05'0 0.0
2017-Dec-18 19:00N 40°41' W 074°05'0 0.0
2017-Dec-18 18:29N 40°41' W 074°05'0 0.0
2017-Dec-18 17:59N 40°41' W 074°05'0 0.0
2017-Dec-18 17:30N 40°41' W 074°05'0 0.0
2017-Dec-18 16:59N 40°41' W 074°05'0 0.0
2017-Dec-18 16:30N 40°41' W 074°05'0 0.0
2017-Dec-18 16:00N 40°41' W 074°05'0 0.0
2017-Dec-18 15:30N 40°41' W 074°05'0 0.0
2017-Dec-18 15:00N 40°41' W 074°05'0 0.0
2017-Dec-18 14:30N 40°41' W 074°05'0 0.6
2017-Dec-18 14:00N 40°41' W 074°04'0 0.7
2017-Dec-18 13:30N 40°41' W 074°05'0 0.0
2017-Dec-18 13:00N 40°41' W 074°05'0 0.4
2017-Dec-18 12:30N 40°41' W 074°04'0 0.1
2017-Dec-18 12:00N 40°41' W 074°04'0 0.4
2017-Dec-18 11:30N 40°41' W 074°05'0 0.0
2017-Dec-18 11:00N 40°41' W 074°05'0 0.0
2017-Dec-18 10:30N 40°41' W 074°05'0 0.0
2017-Dec-18 10:00N 40°41' W 074°05'0 0.0
2017-Dec-18 09:30N 40°41' W 074°05'0 0.0
2017-Dec-18 09:00N 40°41' W 074°05'0 0.4
2017-Dec-18 08:30N 40°41' W 074°04'3 6.7
2017-Dec-18 08:00N 40°39' W 074°07'3 6.5
2017-Dec-18 07:30N 40°42' W 074°08'0 0.6
2017-Dec-18 07:00N 40°42' W 074°09'2 3.3
2017-Dec-18 06:30N 40°40' W 074°08'2 3.7
2017-Dec-18 06:00N 40°39' W 074°07'4 7.7
2017-Dec-18 05:30N 40°41' W 074°02'4 8.3
2017-Dec-18 05:00N 40°43' W 073°58'4 8.8
2017-Dec-18 04:30N 40°47' W 073°55'4 8.2
2017-Dec-18 03:59N 40°48' W 073°50'2 4.2
2017-Dec-18 03:28N 40°49' W 073°48'2 2.0
2017-Dec-18 02:13N 40°52' W 073°49'1 4.8
2017-Dec-18 02:00N 40°51' W 073°49'3 5.1
2017-Dec-18 01:30N 40°48' W 073°49'510.6
2017-Dec-18 01:00N 40°47' W 073°56'611.6
2017-Dec-18 00:30N 40°42' W 074°00'510.1
2017-Dec-18 00:00N 40°39' W 074°06'2 5.0
2017-Dec-17 23:30N 40°40' W 074°08'2 3.6
2017-Dec-17 23:00N 40°42' W 074°09'0 0.0
2017-Dec-17 22:30N 40°42' W 074°09'0 0.0
2017-Dec-17 21:59N 40°42' W 074°09'0 0.0
2017-Dec-17 21:31N 40°42' W 074°09'0 0.0
2017-Dec-17 20:59N 40°42' W 074°09'0 0.0
2017-Dec-17 20:30N 40°42' W 074°09'0 0.0
2017-Dec-17 20:00N 40°42' W 074°09'0 0.0
2017-Dec-17 19:30N 40°42' W 074°09'0 0.0
2017-Dec-17 18:59N 40°42' W 074°09'0 0.0
2017-Dec-17 18:31N 40°42' W 074°09'0 0.0
2017-Dec-17 18:00N 40°42' W 074°09'0 0.0
2017-Dec-17 17:30N 40°42' W 074°09'0 0.0
2017-Dec-17 17:01N 40°42' W 074°09'0 0.0
2017-Dec-17 16:30N 40°42' W 074°09'0 0.0
2017-Dec-17 16:00N 40°42' W 074°09'3 5.7
2017-Dec-17 15:30N 40°39' W 074°09'3 5.9
2017-Dec-17 15:00N 40°39' W 074°05'2 4.1
2017-Dec-17 14:31N 40°41' W 074°05'0 0.0
2017-Dec-17 14:00N 40°41' W 074°05'0 0.0
2017-Dec-17 13:31N 40°41' W 074°05'0 0.0
2017-Dec-17 13:00N 40°41' W 074°05'0 0.0
2017-Dec-17 12:31N 40°41' W 074°05'0 0.0
2017-Dec-17 12:01N 40°41' W 074°05'0 0.0
2017-Dec-17 11:31N 40°41' W 074°05'0 0.0
2017-Dec-17 11:01N 40°41' W 074°05'0 0.0
2017-Dec-17 10:30N 40°41' W 074°05'0 0.0
2017-Dec-17 10:01N 40°41' W 074°05'0 0.0
2017-Dec-17 09:31N 40°41' W 074°05'0 0.0
2017-Dec-17 09:00N 40°41' W 074°05'0 0.0
2017-Dec-17 08:31N 40°41' W 074°05'0 0.0
2017-Dec-17 08:01N 40°41' W 074°05'0 0.0
2017-Dec-17 07:30N 40°41' W 074°05'0 0.0
2017-Dec-17 07:00N 40°41' W 074°05'0 0.0
2017-Dec-17 06:30N 40°41' W 074°05'0 0.0
2017-Dec-17 06:00N 40°41' W 074°05'0 0.0
2017-Dec-17 05:30N 40°41' W 074°05'0 0.0
2017-Dec-17 05:00N 40°41' W 074°05'0 0.0
2017-Dec-17 04:30N 40°41' W 074°05'0 0.0
2017-Dec-17 04:00N 40°41' W 074°05'0 0.0
2017-Dec-17 03:30N 40°41' W 074°05'0 0.0
2017-Dec-17 03:00N 40°41' W 074°05'0 0.0
2017-Dec-17 02:30N 40°41' W 074°05'0 0.0
2017-Dec-17 02:00N 40°41' W 074°05'0 0.0
2017-Dec-17 01:30N 40°41' W 074°05'0 0.0
2017-Dec-17 01:01N 40°41' W 074°05'0 0.0
2017-Dec-17 00:31N 40°41' W 074°05'0 0.0
2017-Dec-17 00:01N 40°41' W 074°05'0 0.0
2017-Dec-16 23:31N 40°41' W 074°05'0 0.0
2017-Dec-16 23:01N 40°41' W 074°05'0 0.3
2017-Dec-16 22:30N 40°41' W 074°04'0 0.1
2017-Dec-16 22:00N 40°41' W 074°04'0 0.1
2017-Dec-16 21:30N 40°41' W 074°04'0 0.1
2017-Dec-16 21:01N 40°41' W 074°04'0 0.1
2017-Dec-16 20:31N 40°41' W 074°04'0 0.3
2017-Dec-16 20:00N 40°41' W 074°04'0 0.2
2017-Dec-16 19:30N 40°41' W 074°05'0 0.0
2017-Dec-16 19:01N 40°41' W 074°05'0 0.0
2017-Dec-16 18:31N 40°41' W 074°05'0 0.0
2017-Dec-16 18:01N 40°41' W 074°05'0 0.0
2017-Dec-16 17:30N 40°41' W 074°05'0 0.0
2017-Dec-16 17:01N 40°41' W 074°05'0 0.0
2017-Dec-16 16:31N 40°41' W 074°05'0 0.0
2017-Dec-16 16:00N 40°41' W 074°05'0 0.0
2017-Dec-16 15:31N 40°41' W 074°05'0 0.0
2017-Dec-16 15:00N 40°41' W 074°05'0 0.0
2017-Dec-16 14:31N 40°41' W 074°05'0 0.0
2017-Dec-16 14:01N 40°41' W 074°05'0 0.0
2017-Dec-16 13:31N 40°41' W 074°05'0 0.0
2017-Dec-16 13:01N 40°41' W 074°05'0 0.0
2017-Dec-16 12:31N 40°41' W 074°05'0 0.4
2017-Dec-16 12:00N 40°41' W 074°04'0 0.2
2017-Dec-16 11:30N 40°41' W 074°04'0 0.0
2017-Dec-16 11:01N 40°41' W 074°04'0 0.4
2017-Dec-16 10:30N 40°41' W 074°05'0 0.5
2017-Dec-16 10:01N 40°41' W 074°04'0 0.0
2017-Dec-16 09:30N 40°41' W 074°04'0 0.0
2017-Dec-16 09:01N 40°41' W 074°04'0 0.0
2017-Dec-16 08:31N 40°41' W 074°04'0 0.0
2017-Dec-16 08:01N 40°41' W 074°04'0 0.0
2017-Dec-16 07:31N 40°41' W 074°04'0 0.0
2017-Dec-16 07:00N 40°41' W 074°04'0 0.6
2017-Dec-16 06:31N 40°41' W 074°05'1 1.1
2017-Dec-16 06:01N 40°41' W 074°04'2 3.9
2017-Dec-16 05:31N 40°41' W 074°02'4 7.2
2017-Dec-16 05:00N 40°43' W 073°58'1 2.9
2017-Dec-16 04:30N 40°44' W 073°57'0 0.1
2017-Dec-16 04:00N 40°44' W 073°57'0 0.1
2017-Dec-16 03:30N 40°44' W 073°57'0 0.0
2017-Dec-16 02:58N 40°44' W 073°57'0 0.8
2017-Dec-16 02:29N 40°44' W 073°57'2 4.6
2017-Dec-16 02:00N 40°42' W 073°59'3 5.9
2017-Dec-16 01:30N 40°41' W 074°02'2 3.4
2017-Dec-16 01:00N 40°41' W 074°05'1 2.5
2017-Dec-16 00:31N 40°40' W 074°04'4 7.3
2017-Dec-16 00:00N 40°39' W 074°08'2 3.3
2017-Dec-15 23:17N 40°41' W 074°08'4 1.7
2017-Dec-15 20:55N 40°38' W 074°12'3 5.1
2017-Dec-15 20:18N 40°39' W 074°08'2 7.0
2017-Dec-15 20:00N 40°39' W 074°05'3 6.2
2017-Dec-15 19:30N 40°41' W 074°02'4 7.7
2017-Dec-15 19:00N 40°45' W 074°01'2 3.6
2017-Dec-15 18:30N 40°46' W 073°60'2 3.4
2017-Dec-15 18:00N 40°45' W 074°01'3 5.2
2017-Dec-15 17:30N 40°42' W 074°02'3 5.2
2017-Dec-15 17:00N 40°40' W 074°04'3 6.8
2017-Dec-15 16:30N 40°39' W 074°07'3 6.0
2017-Dec-15 16:00N 40°38' W 074°12'2 5.0
2017-Dec-15 15:30N 40°36' W 074°12'2 3.1
2017-Dec-15 14:59N 40°34' W 074°12'0 0.1
2017-Dec-15 14:27N 40°34' W 074°12'2 4.5
2017-Dec-15 14:00N 40°36' W 074°12'3 4.7
2017-Dec-15 13:17N 40°39' W 074°09'2 5.4
2017-Dec-15 12:54N 40°39' W 074°06'2 5.4
2017-Dec-15 12:30N 40°40' W 074°04'3 5.5
2017-Dec-15 12:00N 40°42' W 074°02'2 4.8
2017-Dec-15 11:30N 40°45' W 074°01'2 4.0
2017-Dec-15 11:00N 40°47' W 074°00'0 0.8
2017-Dec-15 10:30N 40°46' W 073°60'1 1.2
2017-Dec-15 10:00N 40°46' W 074°01'4 7.7
2017-Dec-15 09:30N 40°42' W 074°02'3 6.7
2017-Dec-15 09:00N 40°39' W 074°04'3 5.6
2017-Dec-15 08:30N 40°39' W 074°08'3 5.8
2017-Dec-15 08:00N 40°38' W 074°12'3 6.0
2017-Dec-15 07:30N 40°35' W 074°12'1 1.2
2017-Dec-15 06:40N 40°34' W 074°12'2 6.0
2017-Dec-15 06:20N 40°36' W 074°12'3 7.7
2017-Dec-15 06:00N 40°39' W 074°11'3 7.0
2017-Dec-15 05:30N 40°41' W 074°08'0 0.1
2017-Dec-15 05:00N 40°41' W 074°08'0 0.0
2017-Dec-15 04:30N 40°41' W 074°08'0 0.0
2017-Dec-15 04:00N 40°41' W 074°08'1 0.6
2017-Dec-15 02:30N 40°42' W 074°09'1 0.6
2017-Dec-15 01:00N 40°41' W 074°08'0 0.1
2017-Dec-15 00:29N 40°41' W 074°08'3 0.5
2017-Dec-14 18:30N 40°44' W 074°06'0 0.1
2017-Dec-14 18:00N 40°44' W 074°06'1 2.2
2017-Dec-14 17:30N 40°43' W 074°06'2 3.3
2017-Dec-14 17:00N 40°42' W 074°07'1 1.4
2017-Dec-14 16:30N 40°41' W 074°08'0 0.0
2017-Dec-14 16:00N 40°41' W 074°08'0 0.0
2017-Dec-14 15:00N 40°41' W 074°08'0 0.2
2017-Dec-14 14:30N 40°41' W 074°08'0 0.2
2017-Dec-14 14:00N 40°41' W 074°08'0 0.0
2017-Dec-14 13:30N 40°41' W 074°08'0 0.1
2017-Dec-14 13:00N 40°41' W 074°08'0 0.8
2017-Dec-14 12:30N 40°42' W 074°08'0 1.0
2017-Dec-14 12:00N 40°41' W 074°08'1 1.1
2017-Dec-14 11:30N 40°41' W 074°09'1 1.2
2017-Dec-14 11:00N 40°41' W 074°08'1 1.2
2017-Dec-14 10:30N 40°41' W 074°08'3 5.1
2017-Dec-14 10:00N 40°39' W 074°10'3 5.3
2017-Dec-14 09:30N 40°37' W 074°12'3 6.3
2017-Dec-14 09:00N 40°34' W 074°13'1 0.3
2017-Dec-14 05:05N 40°35' W 074°13'1 8.5
2017-Dec-14 05:00N 40°36' W 074°12'4 7.4
2017-Dec-14 04:30N 40°39' W 074°10'4 8.8
2017-Dec-14 04:00N 40°40' W 074°04'2 3.3
2017-Dec-14 03:30N 40°41' W 074°05'1 2.6
2017-Dec-14 03:00N 40°41' W 074°03'3 6.8
2017-Dec-14 02:30N 40°42' W 073°59'3 5.1
2017-Dec-14 02:00N 40°44' W 073°57'0 0.2
2017-Dec-14 01:30N 40°44' W 073°57'0 0.1
2017-Dec-14 01:00N 40°44' W 073°57'0 0.1
2017-Dec-14 00:30N 40°44' W 073°57'1 1.3
2017-Dec-14 00:00N 40°44' W 073°58'4 7.4
2017-Dec-13 23:30N 40°42' W 074°01'3 5.3
2017-Dec-13 23:00N 40°41' W 074°04'0 0.0
2017-Dec-13 22:30N 40°41' W 074°04'0 0.0
2017-Dec-13 22:00N 40°41' W 074°04'0 0.0
2017-Dec-13 21:30N 40°41' W 074°04'0 0.4
2017-Dec-13 21:01N 40°41' W 074°05'2 4.0
2017-Dec-13 20:30N 40°39' W 074°05'3 6.2
2017-Dec-13 20:00N 40°39' W 074°09'3 6.3
2017-Dec-13 19:31N 40°42' W 074°09'1 2.2
2017-Dec-13 19:00N 40°41' W 074°09'1 2.3
2017-Dec-13 18:29N 40°42' W 074°09'0 0.0
2017-Dec-13 18:00N 40°42' W 074°09'0 0.0
2017-Dec-13 17:30N 40°42' W 074°09'0 0.0
2017-Dec-13 17:00N 40°42' W 074°09'0 0.0
2017-Dec-13 16:31N 40°42' W 074°09'0 0.0
2017-Dec-13 16:00N 40°42' W 074°09'1 2.2
2017-Dec-13 15:30N 40°41' W 074°08'1 1.7
2017-Dec-13 15:00N 40°40' W 074°08'2 3.2
2017-Dec-13 14:30N 40°39' W 074°08'2 4.0
2017-Dec-13 14:00N 40°39' W 074°06'1 3.0
2017-Dec-13 13:30N 40°40' W 074°04'2 3.2
2017-Dec-13 13:00N 40°41' W 074°05'1 1.4
2017-Dec-13 12:30N 40°41' W 074°04'3 5.7
2017-Dec-13 12:00N 40°42' W 074°00'3 6.7
2017-Dec-13 11:30N 40°44' W 073°58'2 3.5
2017-Dec-13 11:00N 40°43' W 073°56'0 0.5
2017-Dec-13 10:30N 40°43' W 073°56'1 2.2
2017-Dec-13 10:00N 40°44' W 073°56'2 3.6
2017-Dec-13 09:30N 40°43' W 073°58'4 7.8
2017-Dec-13 09:01N 40°41' W 074°02'2 3.5
2017-Dec-13 08:30N 40°41' W 074°05'0 0.3
2017-Dec-13 08:00N 40°41' W 074°04'0 0.1
2017-Dec-13 07:30N 40°41' W 074°04'0 0.0
2017-Dec-13 07:01N 40°41' W 074°04'0 0.1
2017-Dec-13 06:30N 40°41' W 074°04'0 0.1
2017-Dec-13 06:01N 40°41' W 074°04'2 3.3
2017-Dec-13 05:30N 40°41' W 074°02'3 5.1
2017-Dec-13 05:00N 40°43' W 073°59'2 4.6
2017-Dec-13 04:29N 40°44' W 073°57'0 0.7
2017-Dec-13 04:00N 40°44' W 073°57'0 0.1
2017-Dec-13 03:30N 40°44' W 073°57'1 2.7
2017-Dec-13 03:00N 40°43' W 073°58'1 2.9
2017-Dec-13 02:30N 40°42' W 073°59'2 3.8
2017-Dec-13 02:00N 40°41' W 074°01'2 4.1
2017-Dec-13 01:30N 40°41' W 074°04'1 1.6
2017-Dec-13 01:00N 40°41' W 074°04'0 0.2
2017-Dec-13 00:31N 40°41' W 074°05'2 3.2
2017-Dec-13 00:00N 40°41' W 074°02'4 7.8
2017-Dec-12 23:30N 40°43' W 073°58'4 7.8
2017-Dec-12 23:00N 40°47' W 073°56'3 3.1
2017-Dec-12 22:00N 40°48' W 073°52'3 5.5
2017-Dec-12 21:27N 40°48' W 073°48'0 0.0
2017-Dec-12 20:52N 40°48' W 073°48'0 0.0
2017-Dec-12 18:57N 40°48' W 073°48'3 6.5
2017-Dec-12 18:29N 40°48' W 073°52'4 9.0
2017-Dec-12 18:00N 40°46' W 073°57'4 8.1
2017-Dec-12 17:30N 40°42' W 073°60'3 6.8
2017-Dec-12 17:00N 40°40' W 074°03'1 2.3
2017-Dec-12 16:30N 40°41' W 074°05'0 0.0
2017-Dec-12 16:00N 40°41' W 074°05'0 0.0
2017-Dec-12 15:30N 40°41' W 074°05'0 0.0
2017-Dec-12 15:00N 40°41' W 074°05'0 0.0
2017-Dec-12 14:30N 40°41' W 074°05'0 0.0
2017-Dec-12 14:00N 40°41' W 074°05'0 0.0
2017-Dec-12 13:30N 40°41' W 074°05'0 0.0
2017-Dec-12 13:00N 40°41' W 074°05'0 0.0
2017-Dec-12 12:30N 40°41' W 074°05'0 0.0
2017-Dec-12 12:00N 40°41' W 074°05'0 0.0
2017-Dec-12 11:30N 40°41' W 074°05'0 0.0
2017-Dec-12 11:00N 40°41' W 074°05'0 0.1
2017-Dec-12 10:30N 40°41' W 074°05'0 0.0
2017-Dec-12 10:00N 40°41' W 074°05'0 0.0
2017-Dec-12 09:30N 40°41' W 074°05'0 0.0
2017-Dec-12 09:00N 40°41' W 074°05'0 0.0
2017-Dec-12 08:30N 40°41' W 074°05'0 0.0
2017-Dec-12 08:01N 40°41' W 074°05'0 0.0
2017-Dec-12 07:30N 40°41' W 074°05'0 0.0
2017-Dec-12 07:00N 40°41' W 074°05'0 0.0
2017-Dec-12 06:30N 40°41' W 074°05'0 0.0
2017-Dec-12 06:00N 40°41' W 074°05'0 0.0
2017-Dec-12 05:30N 40°41' W 074°05'0 0.2
2017-Dec-12 05:01N 40°41' W 074°05'2 3.7
2017-Dec-12 04:30N 40°41' W 074°02'2 4.8
2017-Dec-12 04:00N 40°42' W 074°00'3 5.3
2017-Dec-12 03:30N 40°44' W 073°58'1 1.5
2017-Dec-12 03:00N 40°44' W 073°57'1 1.9
2017-Dec-12 02:30N 40°44' W 073°58'510.2
2017-Dec-12 02:00N 40°48' W 073°53'5 8.9
2017-Dec-12 01:29N 40°48' W 073°47'1 0.2
2017-Dec-11 20:35N 40°49' W 073°47'0 3.9
2017-Dec-11 20:29N 40°49' W 073°47'1 1.1
2017-Dec-11 19:31N 40°48' W 073°48'0 1.5
2017-Dec-11 19:29N 40°48' W 073°48'3 5.7
2017-Dec-11 18:59N 40°48' W 073°52'3 6.8
2017-Dec-11 18:30N 40°47' W 073°56'4 8.2
2017-Dec-11 18:00N 40°43' W 073°58'4 7.4
2017-Dec-11 17:31N 40°41' W 074°02'3 5.6
2017-Dec-11 17:00N 40°39' W 074°05'2 4.2
2017-Dec-11 16:29N 40°39' W 074°08'1 2.2
2017-Dec-11 15:59N 40°39' W 074°09'2 4.7
2017-Dec-11 15:30N 40°41' W 074°08'0 0.7
2017-Dec-11 14:59N 40°42' W 074°08'0 0.3
2017-Dec-11 14:30N 40°42' W 074°08'0 0.3
2017-Dec-11 14:00N 40°42' W 074°08'0 0.5
2017-Dec-11 13:31N 40°41' W 074°08'0 0.0
2017-Dec-11 12:59N 40°41' W 074°08'0 0.0
2017-Dec-11 12:30N 40°41' W 074°08'0 0.0
2017-Dec-11 12:00N 40°41' W 074°08'0 0.0
2017-Dec-11 11:30N 40°41' W 074°08'0 0.0
2017-Dec-11 11:00N 40°41' W 074°08'0 0.0
2017-Dec-11 10:30N 40°41' W 074°08'0 0.0
2017-Dec-11 10:00N 40°41' W 074°08'0 0.7
2017-Dec-11 09:30N 40°41' W 074°08'0 0.6
2017-Dec-11 09:01N 40°41' W 074°08'0 0.1
2017-Dec-11 08:30N 40°41' W 074°08'0 0.0
2017-Dec-11 08:00N 40°41' W 074°08'0 0.0
2017-Dec-11 07:30N 40°41' W 074°08'0 0.0
2017-Dec-11 07:00N 40°41' W 074°08'0 0.0
2017-Dec-11 06:30N 40°41' W 074°08'0 0.0
2017-Dec-11 06:00N 40°41' W 074°08'0 0.0
2017-Dec-11 05:30N 40°41' W 074°08'0 0.0
2017-Dec-11 04:59N 40°41' W 074°08'0 0.0
2017-Dec-11 04:30N 40°41' W 074°08'3 5.3
2017-Dec-11 04:00N 40°39' W 074°09'2 3.4
2017-Dec-11 03:30N 40°39' W 074°07'0 0.0
2017-Dec-11 03:00N 40°39' W 074°07'1 1.8
2017-Dec-11 02:30N 40°39' W 074°05'0 0.0
2017-Dec-11 02:00N 40°39' W 074°05'0 0.0
2017-Dec-11 01:30N 40°39' W 074°05'0 0.1
2017-Dec-11 01:00N 40°39' W 074°06'0 0.1
2017-Dec-11 00:30N 40°39' W 074°05'0 0.0
2017-Dec-11 00:01N 40°39' W 074°05'0 0.0
2017-Dec-10 23:30N 40°39' W 074°05'0 0.0
2017-Dec-10 23:00N 40°39' W 074°05'3 5.3
2017-Dec-10 22:30N 40°39' W 074°09'3 6.5
2017-Dec-10 22:00N 40°42' W 074°09'3 6.1
2017-Dec-10 21:30N 40°39' W 074°09'3 5.0
2017-Dec-10 21:00N 40°38' W 074°12'2 3.2
2017-Dec-10 20:29N 40°39' W 074°10'3 6.6
2017-Dec-10 20:00N 40°42' W 074°08'1 1.6
2017-Dec-10 19:30N 40°42' W 074°09'0 0.0
2017-Dec-10 19:00N 40°42' W 074°09'1 1.9
2017-Dec-10 18:30N 40°41' W 074°08'0 0.0
2017-Dec-10 18:00N 40°41' W 074°08'0 0.0
2017-Dec-10 17:30N 40°41' W 074°08'0 0.0
2017-Dec-10 16:59N 40°41' W 074°08'1 1.9
2017-Dec-10 16:30N 40°42' W 074°09'0 0.0
2017-Dec-10 16:00N 40°42' W 074°09'0 0.0
2017-Dec-10 15:30N 40°42' W 074°09'0 0.8
2017-Dec-10 14:59N 40°42' W 074°09'3 6.4
2017-Dec-10 14:29N 40°39' W 074°09'4 7.5
2017-Dec-10 14:00N 40°40' W 074°04'1 3.0
2017-Dec-10 13:30N 40°41' W 074°05'0 0.0
2017-Dec-10 13:00N 40°41' W 074°05'0 0.0
2017-Dec-10 12:30N 40°41' W 074°05'0 0.0
2017-Dec-10 12:00N 40°41' W 074°05'0 0.0
2017-Dec-10 11:30N 40°41' W 074°05'0 0.0
2017-Dec-10 11:00N 40°41' W 074°05'0 0.0
2017-Dec-10 10:30N 40°41' W 074°05'0 0.0
2017-Dec-10 10:00N 40°41' W 074°05'0 0.0
2017-Dec-10 09:30N 40°41' W 074°05'0 0.0
2017-Dec-10 09:00N 40°41' W 074°05'0 0.0
2017-Dec-10 08:30N 40°41' W 074°05'0 0.4
2017-Dec-10 08:00N 40°41' W 074°05'0 0.3
2017-Dec-10 07:30N 40°41' W 074°05'0 0.0
2017-Dec-10 07:00N 40°41' W 074°05'0 0.0
2017-Dec-10 06:30N 40°41' W 074°05'0 0.0
2017-Dec-10 06:00N 40°41' W 074°05'0 0.0
2017-Dec-10 05:30N 40°41' W 074°05'0 0.0
2017-Dec-10 05:00N 40°41' W 074°05'0 0.0
2017-Dec-10 04:30N 40°41' W 074°05'0 0.0
2017-Dec-10 04:00N 40°41' W 074°05'0 0.0
2017-Dec-10 03:30N 40°41' W 074°05'0 0.0
2017-Dec-10 03:00N 40°41' W 074°05'0 0.3
2017-Dec-10 02:30N 40°41' W 074°04'2 4.0
2017-Dec-10 02:00N 40°41' W 074°02'3 5.3
2017-Dec-10 01:30N 40°42' W 073°59'2 4.9
2017-Dec-10 01:00N 40°44' W 073°57'0 0.9
2017-Dec-10 00:30N 40°44' W 073°57'1 2.3
2017-Dec-10 00:00N 40°44' W 073°58'2 3.4
2017-Dec-09 23:30N 40°42' W 073°59'2 4.1
2017-Dec-09 23:00N 40°41' W 074°01'2 4.6
2017-Dec-09 22:30N 40°41' W 074°04'1 2.6
2017-Dec-09 22:00N 40°40' W 074°04'4 7.3
2017-Dec-09 21:30N 40°39' W 074°09'3 5.9
2017-Dec-09 21:00N 40°42' W 074°09'0 0.0
2017-Dec-09 20:30N 40°42' W 074°09'0 0.0
2017-Dec-09 20:00N 40°42' W 074°09'0 0.0
2017-Dec-09 19:30N 40°42' W 074°09'0 0.0
2017-Dec-09 19:00N 40°42' W 074°09'0 0.0
2017-Dec-09 18:30N 40°42' W 074°09'0 0.0
2017-Dec-09 18:00N 40°42' W 074°09'0 0.0
2017-Dec-09 17:30N 40°42' W 074°09'0 0.0
2017-Dec-09 17:00N 40°42' W 074°09'0 0.0
2017-Dec-09 16:30N 40°42' W 074°09'0 0.0
2017-Dec-09 16:00N 40°42' W 074°09'0 0.0
2017-Dec-09 15:30N 40°42' W 074°09'0 0.0
2017-Dec-09 15:00N 40°42' W 074°09'0 0.0
2017-Dec-09 14:30N 40°42' W 074°09'0 0.0
2017-Dec-09 14:00N 40°42' W 074°09'0 0.0
2017-Dec-09 13:30N 40°42' W 074°09'0 0.1
2017-Dec-09 13:00N 40°42' W 074°09'0 0.1
2017-Dec-09 12:30N 40°42' W 074°09'0 0.0
2017-Dec-09 12:00N 40°42' W 074°09'1 2.1
2017-Dec-09 11:30N 40°41' W 074°08'3 6.3
2017-Dec-09 11:00N 40°39' W 074°11'3 6.4
2017-Dec-09 10:30N 40°36' W 074°12'1 2.9
2017-Dec-09 10:00N 40°34' W 074°12'1 2.4
2017-Dec-09 09:28N 40°36' W 074°12'3 5.9
2017-Dec-09 09:00N 40°38' W 074°12'2 4.6
2017-Dec-09 08:30N 40°39' W 074°09'2 4.0
2017-Dec-09 08:00N 40°39' W 074°06'2 4.0
2017-Dec-09 07:30N 40°40' W 074°04'2 4.9
2017-Dec-09 07:00N 40°42' W 074°02'2 4.7
2017-Dec-09 06:30N 40°44' W 074°01'2 3.8
2017-Dec-09 06:00N 40°46' W 074°00'1 1.2
2017-Dec-09 05:30N 40°46' W 073°60'0 0.0
2017-Dec-09 05:00N 40°46' W 073°60'0 0.2
2017-Dec-09 04:30N 40°46' W 073°60'2 4.7
2017-Dec-09 04:00N 40°44' W 074°01'3 5.9
2017-Dec-09 03:30N 40°41' W 074°02'3 5.7
2017-Dec-09 03:00N 40°39' W 074°05'2 4.6
2017-Dec-09 02:30N 40°39' W 074°08'2 4.9
2017-Dec-09 01:59N 40°39' W 074°11'3 5.5
2017-Dec-09 01:28N 40°36' W 074°12'2 3.1
2017-Dec-09 00:56N 40°34' W 074°12'2 3.1
2017-Dec-09 00:23N 40°36' W 074°12'3 7.8
2017-Dec-09 00:00N 40°39' W 074°11'3 6.5
2017-Dec-08 23:30N 40°42' W 074°09'0 0.7
2017-Dec-08 22:58N 40°42' W 074°09'1 2.0
2017-Dec-08 22:30N 40°41' W 074°08'  
Track history (hours):
 
Tides and Currents Weather Stations Pressure Air Temp Water Temp Dewpoint Dewpoint Depression Visibility Wind Speed Wind Dir Waves Ship Positions

Thomas D. Witte

Owner: Donjon Marine Co., Inc., Hillside, NJ. More information available from US FCC via Universal Licensing System and Coast Guard Vessel Documentation Center.

Last reported at 2017-Dec-18 22:30 UTC. Time now 2017-Dec-18 22:40 UTC.
Position N 40°41' W 074°05'.

Length 19 m.

Type: Other ship. MMSI: 367304530.

Date/timePositionNaut miles runAvg speedWind from/ knotsBaromVisibWave heightAir tempDewpointWater temp
2017-Dec-18 22:30N 40°41' W 074°05'0 0.0
2017-Dec-18 22:00N 40°41' W 074°05'0 0.0
2017-Dec-18 21:30N 40°41' W 074°05'0 0.0
2017-Dec-18 21:00N 40°41' W 074°05'0 0.1
2017-Dec-18 20:30N 40°41' W 074°05'0 0.0
2017-Dec-18 20:00N 40°41' W 074°05'0 0.0
2017-Dec-18 19:30N 40°41' W 074°05'0 0.0
2017-Dec-18 19:00N 40°41' W 074°05'0 0.0
2017-Dec-18 18:29N 40°41' W 074°05'0 0.0
2017-Dec-18 17:59N 40°41' W 074°05'0 0.0
2017-Dec-18 17:30N 40°41' W 074°05'0 0.0
2017-Dec-18 16:59N 40°41' W 074°05'0 0.0
2017-Dec-18 16:30N 40°41' W 074°05'0 0.0
2017-Dec-18 16:00N 40°41' W 074°05'0 0.0
2017-Dec-18 15:30N 40°41' W 074°05'0 0.0
2017-Dec-18 15:00N 40°41' W 074°05'0 0.0
2017-Dec-18 14:30N 40°41' W 074°05'0 0.6
2017-Dec-18 14:00N 40°41' W 074°04'0 0.7
2017-Dec-18 13:30N 40°41' W 074°05'0 0.0
2017-Dec-18 13:00N 40°41' W 074°05'0 0.4
2017-Dec-18 12:30N 40°41' W 074°04'0 0.1
2017-Dec-18 12:00N 40°41' W 074°04'0 0.4
2017-Dec-18 11:30N 40°41' W 074°05'0 0.0
2017-Dec-18 11:00N 40°41' W 074°05'0 0.0
2017-Dec-18 10:30N 40°41' W 074°05'0 0.0
2017-Dec-18 10:00N 40°41' W 074°05'0 0.0
2017-Dec-18 09:30N 40°41' W 074°05'0 0.0
2017-Dec-18 09:00N 40°41' W 074°05'0 0.4
2017-Dec-18 08:30N 40°41' W 074°04'3 6.7
2017-Dec-18 08:00N 40°39' W 074°07'3 6.5
2017-Dec-18 07:30N 40°42' W 074°08'0 0.6
2017-Dec-18 07:00N 40°42' W 074°09'2 3.3
2017-Dec-18 06:30N 40°40' W 074°08'2 3.7
2017-Dec-18 06:00N 40°39' W 074°07'4 7.7
2017-Dec-18 05:30N 40°41' W 074°02'4 8.3
2017-Dec-18 05:00N 40°43' W 073°58'4 8.8
2017-Dec-18 04:30N 40°47' W 073°55'4 8.2
2017-Dec-18 03:59N 40°48' W 073°50'2 4.2
2017-Dec-18 03:28N 40°49' W 073°48'2 2.0
2017-Dec-18 02:13N 40°52' W 073°49'1 4.8
2017-Dec-18 02:00N 40°51' W 073°49'3 5.1
2017-Dec-18 01:30N 40°48' W 073°49'510.6
2017-Dec-18 01:00N 40°47' W 073°56'611.6
2017-Dec-18 00:30N 40°42' W 074°00'510.1
2017-Dec-18 00:00N 40°39' W 074°06'2 5.0
2017-Dec-17 23:30N 40°40' W 074°08'2 3.6
2017-Dec-17 23:00N 40°42' W 074°09'0 0.0
2017-Dec-17 22:30N 40°42' W 074°09'0 0.0
2017-Dec-17 21:59N 40°42' W 074°09'0 0.0
2017-Dec-17 21:31N 40°42' W 074°09'0 0.0
2017-Dec-17 20:59N 40°42' W 074°09'0 0.0
2017-Dec-17 20:30N 40°42' W 074°09'0 0.0
2017-Dec-17 20:00N 40°42' W 074°09'0 0.0
2017-Dec-17 19:30N 40°42' W 074°09'0 0.0
2017-Dec-17 18:59N 40°42' W 074°09'0 0.0
2017-Dec-17 18:31N 40°42' W 074°09'0 0.0
2017-Dec-17 18:00N 40°42' W 074°09'0 0.0
2017-Dec-17 17:30N 40°42' W 074°09'0 0.0
2017-Dec-17 17:01N 40°42' W 074°09'0 0.0
2017-Dec-17 16:30N 40°42' W 074°09'0 0.0
2017-Dec-17 16:00N 40°42' W 074°09'3 5.7
2017-Dec-17 15:30N 40°39' W 074°09'3 5.9
2017-Dec-17 15:00N 40°39' W 074°05'2 4.1
2017-Dec-17 14:31N 40°41' W 074°05'0 0.0
2017-Dec-17 14:00N 40°41' W 074°05'0 0.0
2017-Dec-17 13:31N 40°41' W 074°05'0 0.0
2017-Dec-17 13:00N 40°41' W 074°05'0 0.0
2017-Dec-17 12:31N 40°41' W 074°05'0 0.0
2017-Dec-17 12:01N 40°41' W 074°05'0 0.0
2017-Dec-17 11:31N 40°41' W 074°05'0 0.0
2017-Dec-17 11:01N 40°41' W 074°05'0 0.0
2017-Dec-17 10:30N 40°41' W 074°05'0 0.0
2017-Dec-17 10:01N 40°41' W 074°05'0 0.0
2017-Dec-17 09:31N 40°41' W 074°05'0 0.0
2017-Dec-17 09:00N 40°41' W 074°05'0 0.0
2017-Dec-17 08:31N 40°41' W 074°05'0 0.0
2017-Dec-17 08:01N 40°41' W 074°05'0 0.0
2017-Dec-17 07:30N 40°41' W 074°05'0 0.0
2017-Dec-17 07:00N 40°41' W 074°05'0 0.0
2017-Dec-17 06:30N 40°41' W 074°05'0 0.0
2017-Dec-17 06:00N 40°41' W 074°05'0 0.0
2017-Dec-17 05:30N 40°41' W 074°05'0 0.0
2017-Dec-17 05:00N 40°41' W 074°05'0 0.0
2017-Dec-17 04:30N 40°41' W 074°05'0 0.0
2017-Dec-17 04:00N 40°41' W 074°05'0 0.0
2017-Dec-17 03:30N 40°41' W 074°05'0 0.0
2017-Dec-17 03:00N 40°41' W 074°05'0 0.0
2017-Dec-17 02:30N 40°41' W 074°05'0 0.0
2017-Dec-17 02:00N 40°41' W 074°05'0 0.0
2017-Dec-17 01:30N 40°41' W 074°05'0 0.0
2017-Dec-17 01:01N 40°41' W 074°05'0 0.0
2017-Dec-17 00:31N 40°41' W 074°05'0 0.0
2017-Dec-17 00:01N 40°41' W 074°05'0 0.0
2017-Dec-16 23:31N 40°41' W 074°05'0 0.0
2017-Dec-16 23:01N 40°41' W 074°05'0 0.3
2017-Dec-16 22:30N 40°41' W 074°04'0 0.1
2017-Dec-16 22:00N 40°41' W 074°04'0 0.1
2017-Dec-16 21:30N 40°41' W 074°04'0 0.1
2017-Dec-16 21:01N 40°41' W 074°04'0 0.1
2017-Dec-16 20:31N 40°41' W 074°04'0 0.3
2017-Dec-16 20:00N 40°41' W 074°04'0 0.2
2017-Dec-16 19:30N 40°41' W 074°05'0 0.0
2017-Dec-16 19:01N 40°41' W 074°05'0 0.0
2017-Dec-16 18:31N 40°41' W 074°05'0 0.0
2017-Dec-16 18:01N 40°41' W 074°05'0 0.0
2017-Dec-16 17:30N 40°41' W 074°05'0 0.0
2017-Dec-16 17:01N 40°41' W 074°05'0 0.0
2017-Dec-16 16:31N 40°41' W 074°05'0 0.0
2017-Dec-16 16:00N 40°41' W 074°05'0 0.0
2017-Dec-16 15:31N 40°41' W 074°05'0 0.0
2017-Dec-16 15:00N 40°41' W 074°05'0 0.0
2017-Dec-16 14:31N 40°41' W 074°05'0 0.0
2017-Dec-16 14:01N 40°41' W 074°05'0 0.0
2017-Dec-16 13:31N 40°41' W 074°05'0 0.0
2017-Dec-16 13:01N 40°41' W 074°05'0 0.0
2017-Dec-16 12:31N 40°41' W 074°05'0 0.4
2017-Dec-16 12:00N 40°41' W 074°04'0 0.2
2017-Dec-16 11:30N 40°41' W 074°04'0 0.0
2017-Dec-16 11:01N 40°41' W 074°04'0 0.4
2017-Dec-16 10:30N 40°41' W 074°05'0 0.5
2017-Dec-16 10:01N 40°41' W 074°04'0 0.0
2017-Dec-16 09:30N 40°41' W 074°04'0 0.0
2017-Dec-16 09:01N 40°41' W 074°04'0 0.0
2017-Dec-16 08:31N 40°41' W 074°04'0 0.0
2017-Dec-16 08:01N 40°41' W 074°04'0 0.0
2017-Dec-16 07:31N 40°41' W 074°04'0 0.0
2017-Dec-16 07:00N 40°41' W 074°04'0 0.6
2017-Dec-16 06:31N 40°41' W 074°05'1 1.1
2017-Dec-16 06:01N 40°41' W 074°04'2 3.9
2017-Dec-16 05:31N 40°41' W 074°02'4 7.2
2017-Dec-16 05:00N 40°43' W 073°58'1 2.9
2017-Dec-16 04:30N 40°44' W 073°57'0 0.1
2017-Dec-16 04:00N 40°44' W 073°57'0 0.1
2017-Dec-16 03:30N 40°44' W 073°57'0 0.0
2017-Dec-16 02:58N 40°44' W 073°57'0 0.8
2017-Dec-16 02:29N 40°44' W 073°57'2 4.6
2017-Dec-16 02:00N 40°42' W 073°59'3 5.9
2017-Dec-16 01:30N 40°41' W 074°02'2 3.4
2017-Dec-16 01:00N 40°41' W 074°05'1 2.5
2017-Dec-16 00:31N 40°40' W 074°04'4 7.3
2017-Dec-16 00:00N 40°39' W 074°08'2 3.3
2017-Dec-15 23:17N 40°41' W 074°08'4 1.7
2017-Dec-15 20:55N 40°38' W 074°12'3 5.1
2017-Dec-15 20:18N 40°39' W 074°08'2 7.0
2017-Dec-15 20:00N 40°39' W 074°05'3 6.2
2017-Dec-15 19:30N 40°41' W 074°02'4 7.7
2017-Dec-15 19:00N 40°45' W 074°01'2 3.6
2017-Dec-15 18:30N 40°46' W 073°60'2 3.4
2017-Dec-15 18:00N 40°45' W 074°01'3 5.2
2017-Dec-15 17:30N 40°42' W 074°02'3 5.2
2017-Dec-15 17:00N 40°40' W 074°04'3 6.8
2017-Dec-15 16:30N 40°39' W 074°07'3 6.0
2017-Dec-15 16:00N 40°38' W 074°12'2 5.0
2017-Dec-15 15:30N 40°36' W 074°12'2 3.1
2017-Dec-15 14:59N 40°34' W 074°12'0 0.1
2017-Dec-15 14:27N 40°34' W 074°12'2 4.5
2017-Dec-15 14:00N 40°36' W 074°12'3 4.7
2017-Dec-15 13:17N 40°39' W 074°09'2 5.4
2017-Dec-15 12:54N 40°39' W 074°06'2 5.4
2017-Dec-15 12:30N 40°40' W 074°04'3 5.5
2017-Dec-15 12:00N 40°42' W 074°02'2 4.8
2017-Dec-15 11:30N 40°45' W 074°01'2 4.0
2017-Dec-15 11:00N 40°47' W 074°00'0 0.8
2017-Dec-15 10:30N 40°46' W 073°60'1 1.2
2017-Dec-15 10:00N 40°46' W 074°01'4 7.7
2017-Dec-15 09:30N 40°42' W 074°02'3 6.7
2017-Dec-15 09:00N 40°39' W 074°04'3 5.6
2017-Dec-15 08:30N 40°39' W 074°08'3 5.8
2017-Dec-15 08:00N 40°38' W 074°12'3 6.0
2017-Dec-15 07:30N 40°35' W 074°12'1 1.2
2017-Dec-15 06:40N 40°34' W 074°12'2 6.0
2017-Dec-15 06:20N 40°36' W 074°12'3 7.7
2017-Dec-15 06:00N 40°39' W 074°11'3 7.0
2017-Dec-15 05:30N 40°41' W 074°08'0 0.1
2017-Dec-15 05:00N 40°41' W 074°08'0 0.0
2017-Dec-15 04:30N 40°41' W 074°08'0 0.0
2017-Dec-15 04:00N 40°41' W 074°08'1 0.6
2017-Dec-15 02:30N 40°42' W 074°09'1 0.6
2017-Dec-15 01:00N 40°41' W 074°08'0 0.1
2017-Dec-15 00:29N 40°41' W 074°08'3 0.5
2017-Dec-14 18:30N 40°44' W 074°06'0 0.1
2017-Dec-14 18:00N 40°44' W 074°06'1 2.2
2017-Dec-14 17:30N 40°43' W 074°06'2 3.3
2017-Dec-14 17:00N 40°42' W 074°07'1 1.4
2017-Dec-14 16:30N 40°41' W 074°08'0 0.0
2017-Dec-14 16:00N 40°41' W 074°08'0 0.0
2017-Dec-14 15:00N 40°41' W 074°08'0 0.2
2017-Dec-14 14:30N 40°41' W 074°08'0 0.2
2017-Dec-14 14:00N 40°41' W 074°08'0 0.0
2017-Dec-14 13:30N 40°41' W 074°08'0 0.1
2017-Dec-14 13:00N 40°41' W 074°08'0 0.8
2017-Dec-14 12:30N 40°42' W 074°08'0 1.0
2017-Dec-14 12:00N 40°41' W 074°08'1 1.1
2017-Dec-14 11:30N 40°41' W 074°09'1 1.2
2017-Dec-14 11:00N 40°41' W 074°08'1 1.2
2017-Dec-14 10:30N 40°41' W 074°08'3 5.1
2017-Dec-14 10:00N 40°39' W 074°10'3 5.3
2017-Dec-14 09:30N 40°37' W 074°12'3 6.3
2017-Dec-14 09:00N 40°34' W 074°13'1 0.3
2017-Dec-14 05:05N 40°35' W 074°13'1 8.5
2017-Dec-14 05:00N 40°36' W 074°12'4 7.4
2017-Dec-14 04:30N 40°39' W 074°10'4 8.8
2017-Dec-14 04:00N 40°40' W 074°04'2 3.3
2017-Dec-14 03:30N 40°41' W 074°05'1 2.6
2017-Dec-14 03:00N 40°41' W 074°03'3 6.8
2017-Dec-14 02:30N 40°42' W 073°59'3 5.1
2017-Dec-14 02:00N 40°44' W 073°57'0 0.2
2017-Dec-14 01:30N 40°44' W 073°57'0 0.1
2017-Dec-14 01:00N 40°44' W 073°57'0 0.1
2017-Dec-14 00:30N 40°44' W 073°57'1 1.3
2017-Dec-14 00:00N 40°44' W 073°58'4 7.4
2017-Dec-13 23:30N 40°42' W 074°01'3 5.3
2017-Dec-13 23:00N 40°41' W 074°04'0 0.0
2017-Dec-13 22:30N 40°41' W 074°04'0 0.0
2017-Dec-13 22:00N 40°41' W 074°04'0 0.0
2017-Dec-13 21:30N 40°41' W 074°04'0 0.4
2017-Dec-13 21:01N 40°41' W 074°05'2 4.0
2017-Dec-13 20:30N 40°39' W 074°05'3 6.2
2017-Dec-13 20:00N 40°39' W 074°09'3 6.3
2017-Dec-13 19:31N 40°42' W 074°09'1 2.2
2017-Dec-13 19:00N 40°41' W 074°09'1 2.3
2017-Dec-13 18:29N 40°42' W 074°09'0 0.0
2017-Dec-13 18:00N 40°42' W 074°09'0 0.0
2017-Dec-13 17:30N 40°42' W 074°09'0 0.0
2017-Dec-13 17:00N 40°42' W 074°09'0 0.0
2017-Dec-13 16:31N 40°42' W 074°09'0 0.0
2017-Dec-13 16:00N 40°42' W 074°09'1 2.2
2017-Dec-13 15:30N 40°41' W 074°08'1 1.7
2017-Dec-13 15:00N 40°40' W 074°08'2 3.2
2017-Dec-13 14:30N 40°39' W 074°08'2 4.0
2017-Dec-13 14:00N 40°39' W 074°06'1 3.0
2017-Dec-13 13:30N 40°40' W 074°04'2 3.2
2017-Dec-13 13:00N 40°41' W 074°05'1 1.4
2017-Dec-13 12:30N 40°41' W 074°04'3 5.7
2017-Dec-13 12:00N 40°42' W 074°00'3 6.7
2017-Dec-13 11:30N 40°44' W 073°58'2 3.5
2017-Dec-13 11:00N 40°43' W 073°56'0 0.5
2017-Dec-13 10:30N 40°43' W 073°56'1 2.2
2017-Dec-13 10:00N 40°44' W 073°56'2 3.6
2017-Dec-13 09:30N 40°43' W 073°58'4 7.8
2017-Dec-13 09:01N 40°41' W 074°02'2 3.5
2017-Dec-13 08:30N 40°41' W 074°05'0 0.3
2017-Dec-13 08:00N 40°41' W 074°04'0 0.1
2017-Dec-13 07:30N 40°41' W 074°04'0 0.0
2017-Dec-13 07:01N 40°41' W 074°04'0 0.1
2017-Dec-13 06:30N 40°41' W 074°04'0 0.1
2017-Dec-13 06:01N 40°41' W 074°04'2 3.3
2017-Dec-13 05:30N 40°41' W 074°02'3 5.1
2017-Dec-13 05:00N 40°43' W 073°59'2 4.6
2017-Dec-13 04:29N 40°44' W 073°57'0 0.7
2017-Dec-13 04:00N 40°44' W 073°57'0 0.1
2017-Dec-13 03:30N 40°44' W 073°57'1 2.7
2017-Dec-13 03:00N 40°43' W 073°58'1 2.9
2017-Dec-13 02:30N 40°42' W 073°59'2 3.8
2017-Dec-13 02:00N 40°41' W 074°01'2 4.1
2017-Dec-13 01:30N 40°41' W 074°04'1 1.6
2017-Dec-13 01:00N 40°41' W 074°04'0 0.2
2017-Dec-13 00:31N 40°41' W 074°05'2 3.2
2017-Dec-13 00:00N 40°41' W 074°02'4 7.8
2017-Dec-12 23:30N 40°43' W 073°58'4 7.8
2017-Dec-12 23:00N 40°47' W 073°56'3 3.1
2017-Dec-12 22:00N 40°48' W 073°52'3 5.5
2017-Dec-12 21:27N 40°48' W 073°48'0 0.0
2017-Dec-12 20:52N 40°48' W 073°48'0 0.0
2017-Dec-12 18:57N 40°48' W 073°48'3 6.5
2017-Dec-12 18:29N 40°48' W 073°52'4 9.0
2017-Dec-12 18:00N 40°46' W 073°57'4 8.1
2017-Dec-12 17:30N 40°42' W 073°60'3 6.8
2017-Dec-12 17:00N 40°40' W 074°03'1 2.3
2017-Dec-12 16:30N 40°41' W 074°05'0 0.0
2017-Dec-12 16:00N 40°41' W 074°05'0 0.0
2017-Dec-12 15:30N 40°41' W 074°05'0 0.0
2017-Dec-12 15:00N 40°41' W 074°05'0 0.0
2017-Dec-12 14:30N 40°41' W 074°05'0 0.0
2017-Dec-12 14:00N 40°41' W 074°05'0 0.0
2017-Dec-12 13:30N 40°41' W 074°05'0 0.0
2017-Dec-12 13:00N 40°41' W 074°05'0 0.0
2017-Dec-12 12:30N 40°41' W 074°05'0 0.0
2017-Dec-12 12:00N 40°41' W 074°05'0 0.0
2017-Dec-12 11:30N 40°41' W 074°05'0 0.0
2017-Dec-12 11:00N 40°41' W 074°05'0 0.1
2017-Dec-12 10:30N 40°41' W 074°05'0 0.0
2017-Dec-12 10:00N 40°41' W 074°05'0 0.0
2017-Dec-12 09:30N 40°41' W 074°05'0 0.0
2017-Dec-12 09:00N 40°41' W 074°05'0 0.0
2017-Dec-12 08:30N 40°41' W 074°05'0 0.0
2017-Dec-12 08:01N 40°41' W 074°05'0 0.0
2017-Dec-12 07:30N 40°41' W 074°05'0 0.0
2017-Dec-12 07:00N 40°41' W 074°05'0 0.0
2017-Dec-12 06:30N 40°41' W 074°05'0 0.0
2017-Dec-12 06:00N 40°41' W 074°05'0 0.0
2017-Dec-12 05:30N 40°41' W 074°05'0 0.2
2017-Dec-12 05:01N 40°41' W 074°05'2 3.7
2017-Dec-12 04:30N 40°41' W 074°02'2 4.8
2017-Dec-12 04:00N 40°42' W 074°00'3 5.3
2017-Dec-12 03:30N 40°44' W 073°58'1 1.5
2017-Dec-12 03:00N 40°44' W 073°57'1 1.9
2017-Dec-12 02:30N 40°44' W 073°58'510.2
2017-Dec-12 02:00N 40°48' W 073°53'5 8.9
2017-Dec-12 01:29N 40°48' W 073°47'1 0.2
2017-Dec-11 20:35N 40°49' W 073°47'0 3.9
2017-Dec-11 20:29N 40°49' W 073°47'1 1.1
2017-Dec-11 19:31N 40°48' W 073°48'0 1.5
2017-Dec-11 19:29N 40°48' W 073°48'3 5.7
2017-Dec-11 18:59N 40°48' W 073°52'3 6.8
2017-Dec-11 18:30N 40°47' W 073°56'4 8.2
2017-Dec-11 18:00N 40°43' W 073°58'4 7.4
2017-Dec-11 17:31N 40°41' W 074°02'3 5.6
2017-Dec-11 17:00N 40°39' W 074°05'2 4.2
2017-Dec-11 16:29N 40°39' W 074°08'1 2.2
2017-Dec-11 15:59N 40°39' W 074°09'2 4.7
2017-Dec-11 15:30N 40°41' W 074°08'0 0.7
2017-Dec-11 14:59N 40°42' W 074°08'0 0.3
2017-Dec-11 14:30N 40°42' W 074°08'0 0.3
2017-Dec-11 14:00N 40°42' W 074°08'0 0.5
2017-Dec-11 13:31N 40°41' W 074°08'0 0.0
2017-Dec-11 12:59N 40°41' W 074°08'0 0.0
2017-Dec-11 12:30N 40°41' W 074°08'0 0.0
2017-Dec-11 12:00N 40°41' W 074°08'0 0.0
2017-Dec-11 11:30N 40°41' W 074°08'0 0.0
2017-Dec-11 11:00N 40°41' W 074°08'0 0.0
2017-Dec-11 10:30N 40°41' W 074°08'0 0.0
2017-Dec-11 10:00N 40°41' W 074°08'0 0.7
2017-Dec-11 09:30N 40°41' W 074°08'0 0.6
2017-Dec-11 09:01N 40°41' W 074°08'0 0.1
2017-Dec-11 08:30N 40°41' W 074°08'0 0.0
2017-Dec-11 08:00N 40°41' W 074°08'0 0.0
2017-Dec-11 07:30N 40°41' W 074°08'0 0.0
2017-Dec-11 07:00N 40°41' W 074°08'0 0.0
2017-Dec-11 06:30N 40°41' W 074°08'0 0.0
2017-Dec-11 06:00N 40°41' W 074°08'0 0.0
2017-Dec-11 05:30N 40°41' W 074°08'0 0.0
2017-Dec-11 04:59N 40°41' W 074°08'0 0.0
2017-Dec-11 04:30N 40°41' W 074°08'3 5.3
2017-Dec-11 04:00N 40°39' W 074°09'2 3.4
2017-Dec-11 03:30N 40°39' W 074°07'0 0.0
2017-Dec-11 03:00N 40°39' W 074°07'1 1.8
2017-Dec-11 02:30N 40°39' W 074°05'0 0.0
2017-Dec-11 02:00N 40°39' W 074°05'0 0.0
2017-Dec-11 01:30N 40°39' W 074°05'0 0.1
2017-Dec-11 01:00N 40°39' W 074°06'0 0.1
2017-Dec-11 00:30N 40°39' W 074°05'0 0.0
2017-Dec-11 00:01N 40°39' W 074°05'0 0.0
2017-Dec-10 23:30N 40°39' W 074°05'0 0.0
2017-Dec-10 23:00N 40°39' W 074°05'3 5.3
2017-Dec-10 22:30N 40°39' W 074°09'3 6.5
2017-Dec-10 22:00N 40°42' W 074°09'3 6.1
2017-Dec-10 21:30N 40°39' W 074°09'3 5.0
2017-Dec-10 21:00N 40°38' W 074°12'2 3.2
2017-Dec-10 20:29N 40°39' W 074°10'3 6.6
2017-Dec-10 20:00N 40°42' W 074°08'1 1.6
2017-Dec-10 19:30N 40°42' W 074°09'0 0.0
2017-Dec-10 19:00N 40°42' W 074°09'1 1.9
2017-Dec-10 18:30N 40°41' W 074°08'0 0.0
2017-Dec-10 18:00N 40°41' W 074°08'0 0.0
2017-Dec-10 17:30N 40°41' W 074°08'0 0.0
2017-Dec-10 16:59N 40°41' W 074°08'1 1.9
2017-Dec-10 16:30N 40°42' W 074°09'0 0.0
2017-Dec-10 16:00N 40°42' W 074°09'0 0.0
2017-Dec-10 15:30N 40°42' W 074°09'0 0.8
2017-Dec-10 14:59N 40°42' W 074°09'3 6.4
2017-Dec-10 14:29N 40°39' W 074°09'4 7.5
2017-Dec-10 14:00N 40°40' W 074°04'1 3.0
2017-Dec-10 13:30N 40°41' W 074°05'0 0.0
2017-Dec-10 13:00N 40°41' W 074°05'0 0.0
2017-Dec-10 12:30N 40°41' W 074°05'0 0.0
2017-Dec-10 12:00N 40°41' W 074°05'0 0.0
2017-Dec-10 11:30N 40°41' W 074°05'0 0.0
2017-Dec-10 11:00N 40°41' W 074°05'0 0.0
2017-Dec-10 10:30N 40°41' W 074°05'0 0.0
2017-Dec-10 10:00N 40°41' W 074°05'0 0.0
2017-Dec-10 09:30N 40°41' W 074°05'0 0.0
2017-Dec-10 09:00N 40°41' W 074°05'0 0.0
2017-Dec-10 08:30N 40°41' W 074°05'0 0.4
2017-Dec-10 08:00N 40°41' W 074°05'0 0.3
2017-Dec-10 07:30N 40°41' W 074°05'0 0.0
2017-Dec-10 07:00N 40°41' W 074°05'0 0.0
2017-Dec-10 06:30N 40°41' W 074°05'0 0.0
2017-Dec-10 06:00N 40°41' W 074°05'0 0.0
2017-Dec-10 05:30N 40°41' W 074°05'0 0.0
2017-Dec-10 05:00N 40°41' W 074°05'0 0.0
2017-Dec-10 04:30N 40°41' W 074°05'0 0.0
2017-Dec-10 04:00N 40°41' W 074°05'0 0.0
2017-Dec-10 03:30N 40°41' W 074°05'0 0.0
2017-Dec-10 03:00N 40°41' W 074°05'0 0.3
2017-Dec-10 02:30N 40°41' W 074°04'2 4.0
2017-Dec-10 02:00N 40°41' W 074°02'3 5.3
2017-Dec-10 01:30N 40°42' W 073°59'2 4.9
2017-Dec-10 01:00N 40°44' W 073°57'0 0.9
2017-Dec-10 00:30N 40°44' W 073°57'1 2.3
2017-Dec-10 00:00N 40°44' W 073°58'2 3.4
2017-Dec-09 23:30N 40°42' W 073°59'2 4.1
2017-Dec-09 23:00N 40°41' W 074°01'2 4.6
2017-Dec-09 22:30N 40°41' W 074°04'1 2.6
2017-Dec-09 22:00N 40°40' W 074°04'4 7.3
2017-Dec-09 21:30N 40°39' W 074°09'3 5.9
2017-Dec-09 21:00N 40°42' W 074°09'0 0.0
2017-Dec-09 20:30N 40°42' W 074°09'0 0.0
2017-Dec-09 20:00N 40°42' W 074°09'0 0.0
2017-Dec-09 19:30N 40°42' W 074°09'0 0.0
2017-Dec-09 19:00N 40°42' W 074°09'0 0.0
2017-Dec-09 18:30N 40°42' W 074°09'0 0.0
2017-Dec-09 18:00N 40°42' W 074°09'0 0.0
2017-Dec-09 17:30N 40°42' W 074°09'0 0.0
2017-Dec-09 17:00N 40°42' W 074°09'0 0.0
2017-Dec-09 16:30N 40°42' W 074°09'0 0.0
2017-Dec-09 16:00N 40°42' W 074°09'0 0.0
2017-Dec-09 15:30N 40°42' W 074°09'0 0.0
2017-Dec-09 15:00N 40°42' W 074°09'0 0.0
2017-Dec-09 14:30N 40°42' W 074°09'0 0.0
2017-Dec-09 14:00N 40°42' W 074°09'0 0.0
2017-Dec-09 13:30N 40°42' W 074°09'0 0.1
2017-Dec-09 13:00N 40°42' W 074°09'0 0.1
2017-Dec-09 12:30N 40°42' W 074°09'0 0.0
2017-Dec-09 12:00N 40°42' W 074°09'1 2.1
2017-Dec-09 11:30N 40°41' W 074°08'3 6.3
2017-Dec-09 11:00N 40°39' W 074°11'3 6.4
2017-Dec-09 10:30N 40°36' W 074°12'1 2.9
2017-Dec-09 10:00N 40°34' W 074°12'1 2.4
2017-Dec-09 09:28N 40°36' W 074°12'3 5.9
2017-Dec-09 09:00N 40°38' W 074°12'2 4.6
2017-Dec-09 08:30N 40°39' W 074°09'2 4.0
2017-Dec-09 08:00N 40°39' W 074°06'2 4.0
2017-Dec-09 07:30N 40°40' W 074°04'2 4.9
2017-Dec-09 07:00N 40°42' W 074°02'2 4.7
2017-Dec-09 06:30N 40°44' W 074°01'2 3.8
2017-Dec-09 06:00N 40°46' W 074°00'1 1.2
2017-Dec-09 05:30N 40°46' W 073°60'0 0.0
2017-Dec-09 05:00N 40°46' W 073°60'0 0.2
2017-Dec-09 04:30N 40°46' W 073°60'2 4.7
2017-Dec-09 04:00N 40°44' W 074°01'3 5.9
2017-Dec-09 03:30N 40°41' W 074°02'3 5.7
2017-Dec-09 03:00N 40°39' W 074°05'2 4.6
2017-Dec-09 02:30N 40°39' W 074°08'2 4.9
2017-Dec-09 01:59N 40°39' W 074°11'3 5.5
2017-Dec-09 01:28N 40°36' W 074°12'2 3.1
2017-Dec-09 00:56N 40°34' W 074°12'2 3.1
2017-Dec-09 00:23N 40°36' W 074°12'3 7.8
2017-Dec-09 00:00N 40°39' W 074°11'3 6.5
2017-Dec-08 23:30N 40°42' W 074°09'0 0.7
2017-Dec-08 22:58N 40°42' W 074°09'1 2.0
2017-Dec-08 22:30N 40°41' W 074°08'  

Dump ship's entire track history